Time;durP1;ratioP1;P1;durP2;ratioP2;P2;SDS_P1;SDS_P2;PMS_P1;PMS_P2;Temp;Humidity;BMP_temperature;BMP_pressure;BME280_temperature;BME280_humidity;BME280_pressure;Samples;Min_cycle;Max_cycle;Signal;HPM_P1;HPM_P2
2023/04/21 00:00:33;;;;;;;22.45;16.35;;;8.10;99.90;;;;;;4999168;28;20828;-59
2023/04/21 00:02:58;;;;;;;27.02;17.73;;;8.10;99.90;;;;;;5006028;28;20032;-61
2023/04/21 00:05:24;;;;;;;28.42;18.25;;;8.00;99.90;;;;;;5001109;28;20469;-60
2023/04/21 00:07:50;;;;;;;25.05;17.33;;;7.90;99.90;;;;;;5005162;28;20041;-59
2023/04/21 00:10:15;;;;;;;21.10;15.88;;;7.90;99.90;;;;;;4999844;28;20654;-59
2023/04/21 00:12:41;;;;;;;23.85;17.33;;;7.80;99.90;;;;;;5000925;28;20393;-61
2023/04/21 00:15:07;;;;;;;25.20;17.70;;;7.80;99.90;;;;;;4998435;28;20038;-61
2023/04/21 00:17:33;;;;;;;29.80;17.90;;;7.70;99.90;;;;;;4999322;28;20533;-61
2023/04/21 00:19:58;;;;;;;23.52;16.75;;;7.70;99.90;;;;;;5000213;28;20026;-58
2023/04/21 00:22:24;;;;;;;25.95;17.95;;;7.60;99.90;;;;;;5005027;28;20086;-59
2023/04/21 00:24:49;;;;;;;25.20;17.80;;;7.60;99.90;;;;;;4998652;28;20463;-59
2023/04/21 00:27:15;;;;;;;23.08;17.15;;;7.60;99.90;;;;;;4997247;28;20045;-63
2023/04/21 00:29:41;;;;;;;26.48;17.63;;;7.60;99.90;;;;;;4997188;28;20034;-60
2023/04/21 00:32:08;;;;;;;22.65;17.67;;;7.70;99.90;;;;;;4999755;28;20061;-58
2023/04/21 00:34:35;;;;;;;26.92;19.17;;;7.70;99.90;;;;;;5002296;28;20029;-59
2023/04/21 00:37:00;;;;;;;23.75;17.23;;;7.70;99.90;;;;;;5000879;28;20517;-59
2023/04/21 00:39:26;;;;;;;22.98;17.23;;;7.70;99.90;;;;;;5000910;28;20042;-57
2023/04/21 00:41:51;;;;;;;25.58;16.48;;;7.80;99.90;;;;;;5000273;28;20026;-62
2023/04/21 00:44:17;;;;;;;26.10;18.73;;;7.80;99.90;;;;;;4998376;28;20038;-60
2023/04/21 00:46:43;;;;;;;22.17;17.42;;;7.90;99.90;;;;;;4998867;28;20033;-59
2023/04/21 00:49:09;;;;;;;26.88;17.42;;;7.90;99.90;;;;;;4997924;28;20461;-62
2023/04/21 00:51:36;;;;;;;27.25;17.70;;;7.90;99.90;;;;;;4998307;28;20030;-60
2023/04/21 00:54:04;;;;;;;25.17;18.50;;;7.90;99.90;;;;;;5000281;28;20050;-59
2023/04/21 00:56:31;;;;;;;25.77;17.42;;;7.90;99.90;;;;;;4997483;28;20133;-58
2023/04/21 00:58:58;;;;;;;20.58;17.17;;;8.00;99.90;;;;;;4999063;28;20089;-61
2023/04/21 01:01:24;;;;;;;24.63;16.45;;;8.10;99.90;;;;;;4998161;28;20391;-58
2023/04/21 01:03:51;;;;;;;21.55;15.63;;;8.10;99.90;;;;;;5000720;28;20023;-58
2023/04/21 01:06:17;;;;;;;21.00;16.27;;;8.10;99.90;;;;;;4998409;28;20273;-60
2023/04/21 01:08:45;;;;;;;34.45;20.00;;;8.10;99.90;;;;;;5000048;28;20026;-62
2023/04/21 01:11:12;;;;;;;27.10;17.80;;;8.20;99.90;;;;;;4998464;28;20125;-64
2023/04/21 01:13:39;;;;;;;31.63;19.05;;;8.20;99.90;;;;;;4999017;28;20025;-60
2023/04/21 01:16:08;;;;;;;32.47;19.23;;;8.30;99.90;;;;;;4997109;28;20030;-58
2023/04/21 01:18:35;;;;;;;26.20;17.33;;;8.30;99.90;;;;;;5002021;28;20058;-58
2023/04/21 01:21:03;;;;;;;26.05;17.13;;;8.30;99.90;;;;;;4997742;28;20043;-58
2023/04/21 01:23:28;;;;;;;27.67;17.65;;;8.30;99.90;;;;;;4996691;28;20513;-62
2023/04/21 01:25:54;;;;;;;27.98;18.38;;;8.30;99.90;;;;;;4998725;28;20023;-59
2023/04/21 01:28:24;;;;;;;20.38;15.60;;;8.30;99.90;;;;;;4999269;28;20033;-61
2023/04/21 01:30:50;;;;;;;27.20;17.77;;;8.30;99.90;;;;;;4998861;28;20114;-60
2023/04/21 01:33:18;;;;;;;24.23;17.80;;;8.40;99.90;;;;;;5000685;28;20104;-61
2023/04/21 01:35:44;;;;;;;24.50;18.05;;;8.40;99.90;;;;;;4996233;28;20034;-60
2023/04/21 01:38:09;;;;;;;28.88;18.92;;;8.40;99.90;;;;;;5001420;28;20030;-62
2023/04/21 01:40:36;;;;;;;24.25;18.27;;;8.40;99.90;;;;;;4997557;28;20117;-59
2023/04/21 01:43:02;;;;;;;27.25;18.02;;;8.50;99.90;;;;;;4997886;28;20577;-60
2023/04/21 01:45:29;;;;;;;25.10;17.58;;;8.50;99.90;;;;;;4998695;28;20036;-61
2023/04/21 01:47:54;;;;;;;23.67;17.38;;;8.50;99.90;;;;;;4999277;28;20030;-61
2023/04/21 01:50:20;;;;;;;26.60;17.20;;;8.50;99.90;;;;;;4998137;28;20026;-62
2023/04/21 01:52:46;;;;;;;20.83;16.55;;;8.60;99.90;;;;;;4998285;28;20030;-61
2023/04/21 01:55:11;;;;;;;23.38;17.70;;;8.50;99.90;;;;;;4998343;28;20109;-58
2023/04/21 01:57:37;;;;;;;22.10;17.40;;;8.50;99.90;;;;;;4999279;28;20130;-60
2023/04/21 02:00:04;;;;;;;24.20;17.70;;;8.50;99.90;;;;;;4993029;28;20027;-61
2023/04/21 02:02:30;;;;;;;23.20;17.73;;;8.50;99.90;;;;;;4998538;28;20038;-62
2023/04/21 02:04:55;;;;;;;24.92;18.58;;;8.40;99.90;;;;;;4998507;28;20490;-59
2023/04/21 02:07:21;;;;;;;21.98;17.25;;;8.40;99.90;;;;;;4998560;28;20502;-60
2023/04/21 02:09:46;;;;;;;22.30;16.27;;;8.30;99.90;;;;;;4996617;28;20030;-61
2023/04/21 02:12:12;;;;;;;20.08;15.02;;;8.30;99.90;;;;;;4997565;28;20030;-61
2023/04/21 02:14:38;;;;;;;22.25;16.77;;;8.10;99.90;;;;;;5000809;28;20050;-60
2023/04/21 02:17:03;;;;;;;18.90;15.13;;;8.00;99.90;;;;;;4995575;28;20029;-62
2023/04/21 02:19:29;;;;;;;18.88;14.45;;;7.90;99.90;;;;;;5012257;28;20101;-59
2023/04/21 02:21:55;;;;;;;19.55;15.40;;;7.80;99.90;;;;;;4999663;28;20394;-60
2023/04/21 02:24:21;;;;;;;18.70;15.45;;;7.70;99.90;;;;;;4996767;28;20034;-60
2023/04/21 02:26:47;;;;;;;26.35;17.95;;;7.50;99.90;;;;;;4997308;28;20045;-59
2023/04/21 02:29:12;;;;;;;21.35;16.55;;;7.40;99.90;;;;;;4998438;28;20038;-61
2023/04/21 02:31:39;;;;;;;27.08;17.73;;;7.40;99.90;;;;;;4991772;28;20026;-60
2023/04/21 02:34:05;;;;;;;20.02;16.55;;;7.30;99.90;;;;;;4999975;28;20643;-58
2023/04/21 02:36:31;;;;;;;24.77;17.67;;;7.30;99.90;;;;;;4995656;28;20038;-61
2023/04/21 02:38:56;;;;;;;26.27;17.80;;;7.10;99.90;;;;;;4996662;28;20030;-60
2023/04/21 02:41:22;;;;;;;26.90;17.85;;;7.00;99.90;;;;;;4997825;28;20526;-58
2023/04/21 02:43:48;;;;;;;27.02;18.33;;;7.00;99.90;;;;;;4996659;28;20036;-59
2023/04/21 02:46:13;;;;;;;25.33;18.05;;;6.90;99.90;;;;;;4997906;28;20112;-59
2023/04/21 02:48:39;;;;;;;25.60;17.55;;;6.80;99.90;;;;;;4996040;28;20467;-60
2023/04/21 02:51:10;;;;;;;27.88;19.38;;;6.70;99.90;;;;;;4997049;28;20050;-57
2023/04/21 02:53:36;;;;;;;26.08;18.42;;;6.70;99.90;;;;;;4997341;28;20046;-59
2023/04/21 02:56:03;;;;;;;32.05;19.33;;;6.70;99.90;;;;;;4995955;28;20756;-58
2023/04/21 02:58:29;;;;;;;31.83;20.45;;;6.70;99.90;;;;;;4997719;28;20092;-63
2023/04/21 03:00:55;;;;;;;30.40;21.15;;;6.80;99.90;;;;;;4996236;28;20479;-60
2023/04/21 03:03:21;;;;;;;31.77;20.85;;;6.80;99.90;;;;;;4996218;28;20118;-60
2023/04/21 03:05:47;;;;;;;23.83;18.83;;;6.80;99.90;;;;;;4999201;28;20129;-61
2023/04/21 03:08:13;;;;;;;31.92;18.92;;;6.80;99.90;;;;;;4996692;28;20033;-60
2023/04/21 03:10:39;;;;;;;27.20;19.35;;;6.70;99.90;;;;;;4992881;28;20057;-59
2023/04/21 03:13:04;;;;;;;28.02;19.88;;;6.70;99.90;;;;;;4997121;28;20037;-59
2023/04/21 03:15:30;;;;;;;30.85;19.70;;;6.70;99.90;;;;;;4992926;28;20129;-61
2023/04/21 03:17:56;;;;;;;29.08;19.85;;;6.60;99.90;;;;;;4999438;28;21228;-61
2023/04/21 03:20:21;;;;;;;28.27;20.00;;;6.60;99.90;;;;;;4995262;28;20062;-59
2023/04/21 03:22:47;;;;;;;30.67;20.85;;;6.60;99.90;;;;;;5009240;28;20039;-58
2023/04/21 03:25:13;;;;;;;29.52;20.60;;;6.60;99.90;;;;;;4998474;28;20029;-60
2023/04/21 03:27:38;;;;;;;26.65;18.95;;;6.60;99.90;;;;;;4996841;28;20058;-60
2023/04/21 03:30:05;;;;;;;27.42;18.17;;;6.70;99.90;;;;;;4999057;28;20049;-59
2023/04/21 03:32:31;;;;;;;34.22;19.00;;;6.60;99.90;;;;;;4995821;28;20026;-59
2023/04/21 03:34:57;;;;;;;26.40;18.60;;;6.60;99.90;;;;;;4993563;28;20505;-60
2023/04/21 03:37:22;;;;;;;30.13;20.90;;;6.60;99.90;;;;;;4995839;28;20018;-61
2023/04/21 03:39:48;;;;;;;24.63;17.95;;;6.60;99.90;;;;;;4995232;28;20062;-62
2023/04/21 03:42:14;;;;;;;24.38;18.02;;;6.70;99.90;;;;;;4995996;28;20065;-62
2023/04/21 03:44:40;;;;;;;23.38;18.58;;;6.60;99.90;;;;;;4996741;28;20031;-61
2023/04/21 03:47:05;;;;;;;24.65;17.73;;;6.60;99.90;;;;;;4995928;28;20033;-61
2023/04/21 03:49:33;;;;;;;30.08;18.88;;;6.50;99.90;;;;;;4994803;28;20018;-62
2023/04/21 03:51:59;;;;;;;27.23;20.23;;;6.50;99.90;;;;;;4999307;28;20041;-60
2023/04/21 03:54:24;;;;;;;23.90;18.27;;;6.50;99.90;;;;;;4997638;28;20058;-60
2023/04/21 03:56:50;;;;;;;25.73;18.30;;;6.50;99.90;;;;;;4994822;28;20109;-59
2023/04/21 03:59:16;;;;;;;27.20;19.58;;;6.50;99.90;;;;;;4996784;28;20585;-60
2023/04/21 04:01:42;;;;;;;28.60;20.05;;;6.60;99.90;;;;;;4995814;28;20026;-61
2023/04/21 04:04:07;;;;;;;29.42;19.73;;;6.60;99.90;;;;;;4996726;28;20032;-58
2023/04/21 04:06:34;;;;;;;34.22;21.15;;;6.70;99.90;;;;;;4993667;28;20030;-58
2023/04/21 04:09:03;;;;;;;32.15;20.45;;;6.70;99.90;;;;;;4997626;28;20034;-62
2023/04/21 04:11:31;;;;;;;30.95;19.17;;;6.70;99.90;;;;;;4999297;28;20035;-63
2023/04/21 04:13:57;;;;;;;27.73;18.67;;;6.70;99.90;;;;;;5000359;28;20370;-59
2023/04/21 04:16:23;;;;;;;26.60;19.33;;;6.60;99.90;;;;;;4999516;28;20040;-58
2023/04/21 04:18:49;;;;;;;28.52;19.58;;;6.50;99.90;;;;;;4995997;28;20406;-62
2023/04/21 04:21:15;;;;;;;28.85;19.27;;;6.50;99.90;;;;;;4998130;28;20057;-60
2023/04/21 04:23:41;;;;;;;26.40;18.75;;;6.40;99.90;;;;;;5002458;28;20495;-60
2023/04/21 04:26:08;;;;;;;24.70;17.35;;;6.40;99.90;;;;;;5000250;28;20133;-58
2023/04/21 04:28:34;;;;;;;24.38;17.85;;;6.30;99.90;;;;;;5000714;28;20057;-59
2023/04/21 04:31:00;;;;;;;21.23;17.85;;;6.30;99.90;;;;;;4997007;28;20030;-59
2023/04/21 04:33:26;;;;;;;20.70;15.85;;;6.20;99.90;;;;;;4998382;28;20022;-59
2023/04/21 04:35:51;;;;;;;23.58;15.82;;;6.20;99.90;;;;;;4995367;28;20038;-60
2023/04/21 04:38:17;;;;;;;23.35;16.77;;;6.10;99.90;;;;;;4998962;28;20534;-61
2023/04/21 04:40:43;;;;;;;24.10;17.27;;;6.00;99.90;;;;;;4996709;28;20026;-60
2023/04/21 04:43:11;;;;;;;20.45;16.70;;;6.10;99.90;;;;;;4998777;28;20030;-64
2023/04/21 04:45:37;;;;;;;32.63;19.83;;;6.10;99.90;;;;;;4998623;28;20204;-61
2023/04/21 04:48:03;;;;;;;33.25;19.98;;;6.30;99.90;;;;;;4996983;28;20520;-62
2023/04/21 04:50:29;;;;;;;24.13;18.15;;;6.40;99.90;;;;;;5014878;28;20030;-61
2023/04/21 04:52:56;;;;;;;28.27;19.15;;;6.60;99.90;;;;;;5001223;28;20092;-58
2023/04/21 04:55:22;;;;;;;20.80;17.10;;;6.70;99.90;;;;;;5000011;28;20445;-64
2023/04/21 04:57:47;;;;;;;27.08;16.95;;;6.80;99.90;;;;;;4999991;28;20042;-59
2023/04/21 05:00:13;;;;;;;24.55;17.58;;;6.90;99.90;;;;;;5001325;28;20030;-59
2023/04/21 05:02:40;;;;;;;22.38;17.02;;;7.10;99.90;;;;;;5000715;28;20052;-59
2023/04/21 05:05:06;;;;;;;19.60;15.52;;;7.20;99.90;;;;;;5004563;28;20128;-59
2023/04/21 05:07:33;;;;;;;22.08;15.60;;;7.20;99.90;;;;;;5005257;28;20748;-62
2023/04/21 05:09:59;;;;;;;21.42;14.77;;;7.30;99.90;;;;;;5005365;28;20045;-61
2023/04/21 05:12:25;;;;;;;20.55;15.68;;;7.30;99.90;;;;;;5005095;28;20037;-60
2023/04/21 05:14:51;;;;;;;20.80;15.77;;;7.20;99.90;;;;;;4998891;28;20034;-61
2023/04/21 05:17:16;;;;;;;18.05;14.85;;;7.00;99.90;;;;;;4999887;28;20030;-62
2023/04/21 05:19:42;;;;;;;19.88;15.52;;;7.00;99.90;;;;;;4999879;28;20054;-59
2023/04/21 05:22:07;;;;;;;19.52;15.88;;;7.00;99.90;;;;;;5000893;28;20486;-63
2023/04/21 05:24:33;;;;;;;23.15;16.00;;;7.00;99.90;;;;;;5001641;28;20109;-61
2023/04/21 05:27:00;;;;;;;22.80;16.33;;;7.00;99.90;;;;;;5000595;28;20042;-61
2023/04/21 05:29:25;;;;;;;24.73;17.50;;;7.10;99.90;;;;;;5001062;28;20030;-60
2023/04/21 05:31:51;;;;;;;20.20;17.88;;;7.30;99.90;;;;;;5000777;28;20030;-63
2023/04/21 05:34:17;;;;;;;22.10;17.55;;;7.60;99.90;;;;;;5004942;28;20112;-60
2023/04/21 05:36:43;;;;;;;31.73;18.67;;;7.80;99.90;;;;;;4994454;28;20026;-60
2023/04/21 05:39:09;;;;;;;24.92;18.50;;;8.00;99.90;;;;;;4999336;28;20034;-62
2023/04/21 05:41:34;;;;;;;27.80;18.98;;;8.30;99.90;;;;;;4999668;28;20030;-61
2023/04/21 05:44:00;;;;;;;28.00;19.13;;;8.50;99.90;;;;;;4999434;28;20122;-60
2023/04/21 05:46:26;;;;;;;32.72;22.02;;;8.70;99.90;;;;;;5005958;28;20043;-60
2023/04/21 05:48:51;;;;;;;31.33;22.25;;;8.80;99.90;;;;;;5005897;28;20489;-60
2023/04/21 05:51:17;;;;;;;30.02;21.90;;;9.00;99.90;;;;;;4999111;28;20034;-60
2023/04/21 05:53:44;;;;;;;34.47;21.38;;;9.10;99.90;;;;;;4997028;28;20600;-61
2023/04/21 05:56:11;;;;;;;34.33;20.83;;;9.30;99.90;;;;;;4996993;28;20041;-62
2023/04/21 05:58:37;;;;;;;30.00;20.00;;;9.40;99.90;;;;;;4998877;28;20030;-61
2023/04/21 06:01:03;;;;;;;32.97;19.40;;;9.60;99.90;;;;;;5000553;28;20030;-63
2023/04/21 06:03:32;;;;;;;25.90;18.13;;;9.70;99.90;;;;;;4997490;28;20041;-62
2023/04/21 06:05:59;;;;;;;23.17;16.95;;;9.80;99.90;;;;;;4998436;28;20034;-58
2023/04/21 06:08:25;;;;;;;21.27;17.08;;;9.90;99.90;;;;;;4996242;28;20132;-58
2023/04/21 06:10:51;;;;;;;22.08;17.40;;;9.90;99.90;;;;;;4997967;28;20115;-59
2023/04/21 06:13:17;;;;;;;22.83;17.25;;;10.00;99.90;;;;;;5000064;28;20037;-62
2023/04/21 06:15:42;;;;;;;21.75;16.77;;;10.00;99.90;;;;;;4997944;28;20026;-58
2023/04/21 06:18:08;;;;;;;17.50;15.68;;;10.00;99.90;;;;;;5000043;28;20132;-60
2023/04/21 06:20:33;;;;;;;24.83;16.73;;;10.00;99.90;;;;;;5001809;28;20046;-59
2023/04/21 06:22:59;;;;;;;21.77;17.05;;;9.90;99.90;;;;;;4999770;28;20042;-59
2023/04/21 06:25:25;;;;;;;23.70;17.40;;;9.90;99.90;;;;;;4996304;28;20105;-58
2023/04/21 06:27:50;;;;;;;24.17;16.67;;;9.90;99.90;;;;;;4998188;28;20029;-60
2023/04/21 06:30:16;;;;;;;25.17;17.63;;;9.90;99.90;;;;;;4998816;28;20494;-59
2023/04/21 06:32:44;;;;;;;24.65;17.50;;;9.90;99.90;;;;;;4997001;28;20056;-58
2023/04/21 06:35:10;;;;;;;21.90;16.98;;;9.90;99.90;;;;;;4998103;28;20085;-60
2023/04/21 06:37:36;;;;;;;21.33;17.50;;;9.90;99.90;;;;;;4997964;28;20772;-59
2023/04/21 06:40:02;;;;;;;26.00;17.02;;;9.90;99.90;;;;;;4997412;28;20030;-60
2023/04/21 06:42:28;;;;;;;23.85;17.63;;;9.90;99.90;;;;;;4996410;28;20030;-60
2023/04/21 06:44:55;;;;;;;20.13;17.15;;;9.90;99.90;;;;;;4994991;28;20031;-58
2023/04/21 06:47:21;;;;;;;24.23;18.25;;;9.90;99.90;;;;;;4998656;28;20026;-59
2023/04/21 06:49:46;;;;;;;21.70;17.10;;;9.90;99.90;;;;;;4998454;28;20137;-61
2023/04/21 06:52:12;;;;;;;18.05;15.98;;;10.00;99.90;;;;;;4997572;28;20026;-59
2023/04/21 06:54:38;;;;;;;20.27;16.88;;;10.00;99.90;;;;;;4996303;28;20402;-59
2023/04/21 06:57:03;;;;;;;19.48;15.90;;;10.10;99.90;;;;;;4997441;28;20041;-58
2023/04/21 06:59:29;;;;;;;22.92;17.05;;;10.20;99.90;;;;;;5000483;28;20174;-59
2023/04/21 07:01:55;;;;;;;20.73;15.35;;;10.40;99.90;;;;;;4995284;28;20038;-61
2023/04/21 07:04:20;;;;;;;16.15;14.52;;;10.60;99.90;;;;;;4996389;28;20057;-62
2023/04/21 07:06:47;;;;;;;20.40;15.45;;;10.80;99.90;;;;;;4999388;28;20022;-59
2023/04/21 07:09:13;;;;;;;22.80;14.82;;;11.10;99.90;;;;;;4992479;28;20041;-61
2023/04/21 07:11:38;;;;;;;23.38;14.85;;;11.30;99.90;;;;;;4998629;28;20056;-59
2023/04/21 07:14:05;;;;;;;18.23;15.02;;;11.40;99.90;;;;;;4997362;28;20033;-59
2023/04/21 07:16:31;;;;;;;17.75;14.25;;;11.60;99.90;;;;;;4993830;28;20025;-58
2023/04/21 07:18:57;;;;;;;20.88;15.13;;;11.70;99.90;;;;;;4997674;28;20497;-58
2023/04/21 07:21:22;;;;;;;19.60;13.70;;;11.80;99.90;;;;;;4996941;28;20058;-59
2023/04/21 07:23:48;;;;;;;16.15;13.88;;;11.90;99.90;;;;;;4992553;28;20081;-58
2023/04/21 07:26:14;;;;;;;15.25;11.88;;;12.00;99.90;;;;;;4994930;28;20026;-60
2023/04/21 07:28:39;;;;;;;13.23;11.80;;;12.20;99.90;;;;;;4993649;28;20113;-60
2023/04/21 07:31:05;;;;;;;13.35;11.52;;;12.30;99.90;;;;;;4998020;28;20382;-59
2023/04/21 07:33:31;;;;;;;15.57;11.88;;;12.40;99.90;;;;;;4997722;28;20235;-60
2023/04/21 07:35:57;;;;;;;15.48;11.73;;;12.50;99.90;;;;;;4999035;28;20041;-59
2023/04/21 07:38:22;;;;;;;13.23;11.95;;;12.60;99.90;;;;;;4998668;28;20038;-58
2023/04/21 07:40:48;;;;;;;12.60;10.88;;;12.60;99.90;;;;;;4994780;28;20049;-62
2023/04/21 07:43:14;;;;;;;15.45;9.27;;;12.70;99.90;;;;;;4996141;28;20030;-61
2023/04/21 07:45:39;;;;;;;13.13;10.55;;;12.80;99.90;;;;;;5000057;28;20038;-59
2023/04/21 07:48:06;;;;;;;13.10;11.38;;;12.80;99.90;;;;;;4998167;28;20074;-59
2023/04/21 07:50:32;;;;;;;11.43;9.55;;;12.90;99.90;;;;;;5001068;28;20029;-60
2023/04/21 07:52:58;;;;;;;12.02;10.23;;;13.00;99.90;;;;;;5001305;28;20053;-58
2023/04/21 07:55:23;;;;;;;11.75;10.55;;;13.10;99.90;;;;;;5002079;28;20477;-59
2023/04/21 07:57:49;;;;;;;12.25;10.52;;;13.20;99.90;;;;;;5001697;28;20033;-62
2023/04/21 08:00:15;;;;;;;9.82;8.82;;;13.40;99.90;;;;;;5000993;28;20510;-60
2023/04/21 08:02:44;;;;;;;10.77;8.90;;;13.50;99.90;;;;;;5001151;28;20041;-63
2023/04/21 08:05:09;;;;;;;10.52;9.43;;;13.60;99.90;;;;;;5001731;28;20120;-60
2023/04/21 08:07:35;;;;;;;10.07;9.07;;;13.70;99.90;;;;;;5001071;28;20549;-62
2023/04/21 08:10:01;;;;;;;10.95;9.95;;;13.80;99.90;;;;;;5000352;28;20022;-59
2023/04/21 08:12:27;;;;;;;12.75;9.85;;;13.90;99.90;;;;;;5002777;28;20661;-59
2023/04/21 08:14:53;;;;;;;15.98;9.85;;;14.00;99.90;;;;;;5000864;28;20073;-60
2023/04/21 08:17:19;;;;;;;11.10;9.70;;;14.00;99.90;;;;;;5001103;28;20398;-60
2023/04/21 08:19:44;;;;;;;17.42;9.52;;;14.10;99.90;;;;;;5000455;28;20029;-60
2023/04/21 08:22:10;;;;;;;9.63;8.57;;;14.20;99.90;;;;;;5000630;28;20023;-61
2023/04/21 08:24:36;;;;;;;13.05;9.85;;;14.30;99.90;;;;;;4998678;28;20108;-61
2023/04/21 08:27:02;;;;;;;10.82;8.88;;;14.30;99.90;;;;;;5002641;28;20503;-59
2023/04/21 08:29:28;;;;;;;19.48;9.40;;;14.50;99.90;;;;;;5000969;28;20057;-60
2023/04/21 08:31:53;;;;;;;14.52;8.20;;;14.50;99.90;;;;;;5000250;28;20038;-60
2023/04/21 08:34:19;;;;;;;12.23;8.68;;;14.60;99.90;;;;;;4999782;28;20105;-60
2023/04/21 08:36:46;;;;;;;12.85;9.13;;;14.60;99.90;;;;;;4995698;28;20032;-62
2023/04/21 08:39:13;;;;;;;12.07;9.27;;;14.70;99.00;;;;;;4995777;28;20487;-60
2023/04/21 08:41:42;;;;;;;14.20;8.93;;;14.70;98.80;;;;;;4999102;28;20030;-59
2023/04/21 08:44:10;;;;;;;10.98;9.35;;;14.80;99.90;;;;;;5002250;28;20038;-60
2023/04/21 08:46:36;;;;;;;9.32;8.50;;;14.90;99.70;;;;;;4996950;28;20414;-63
2023/04/21 08:49:02;;;;;;;9.60;8.52;;;15.00;99.90;;;;;;4999110;28;20032;-60
2023/04/21 08:51:31;;;;;;;9.93;9.02;;;15.10;99.40;;;;;;4994740;28;20033;-61
2023/04/21 08:53:57;;;;;;;9.68;8.88;;;15.20;99.80;;;;;;5002048;28;20042;-60
2023/04/21 08:56:24;;;;;;;12.00;8.35;;;15.30;99.90;;;;;;4999823;28;20417;-62
2023/04/21 08:58:50;;;;;;;9.90;8.77;;;15.50;95.90;;;;;;4999064;28;20458;-62
2023/04/21 09:01:19;;;;;;;9.60;8.27;;;15.60;95.60;;;;;;5000343;28;20149;-61
2023/04/21 09:03:44;;;;;;;8.10;7.45;;;15.70;94.90;;;;;;5003318;28;20088;-60
2023/04/21 09:06:13;;;;;;;10.65;7.97;;;16.00;94.90;;;;;;4998096;28;20462;-64
2023/04/21 09:08:51;;;;;;;11.35;6.85;;;16.30;97.90;;;;;;5002501;28;20037;-59
2023/04/21 09:11:16;;;;;;;6.13;4.97;;;17.00;94.10;;;;;;5001033;28;20111;-61
2023/04/21 09:13:43;;;;;;;6.13;4.57;;;18.30;90.50;;;;;;5001029;28;20523;-62
2023/04/21 09:16:20;;;;;;;6.35;4.80;;;19.00;86.50;;;;;;5001976;28;20062;-64
2023/04/21 09:18:45;;;;;;;7.30;4.32;;;19.40;77.10;;;;;;5003850;28;20494;-61
2023/04/21 09:21:14;;;;;;;7.65;4.47;;;19.90;84.70;;;;;;4999332;28;20072;-62
2023/04/21 09:23:43;;;;;;;5.00;4.60;;;20.20;74.00;;;;;;4998436;28;20033;-60
2023/04/21 09:26:10;;;;;;;6.07;5.50;;;20.70;74.90;;;;;;4996389;28;20046;-61
2023/04/21 09:28:39;;;;;;;5.60;5.10;;;20.70;74.70;;;;;;4999861;28;20019;-61
2023/04/21 09:31:18;;;;;;;10.80;6.28;;;20.80;72.30;;;;;;4998714;28;20026;-61
2023/04/21 09:33:55;;;;;;;5.90;5.47;;;20.70;73.20;;;;;;4997010;28;20502;-60
2023/04/21 09:36:23;;;;;;;6.22;5.72;;;20.90;71.70;;;;;;4999567;28;20384;-61
2023/04/21 09:38:57;;;;;;;6.60;5.97;;;20.80;76.20;;;;;;5000619;28;20039;-60
2023/04/21 09:41:26;;;;;;;5.82;5.20;;;20.70;75.40;;;;;;5000441;28;20030;-61
2023/04/21 09:43:52;;;;;;;6.22;5.63;;;20.40;76.70;;;;;;4995975;28;20026;-60
2023/04/21 09:46:19;;;;;;;5.75;5.03;;;20.70;76.80;;;;;;4999057;28;20076;-61
2023/04/21 09:48:46;;;;;;;5.70;5.05;;;20.80;77.60;;;;;;4999066;28;20164;-64
2023/04/21 09:51:16;;;;;;;7.22;5.07;;;20.80;72.60;;;;;;4998009;28;20121;-61
2023/04/21 09:53:44;;;;;;;5.77;5.10;;;20.90;72.00;;;;;;4998762;28;20039;-60
2023/04/21 09:56:12;;;;;;;6.00;4.85;;;21.00;72.70;;;;;;4999668;28;20521;-62
2023/04/21 09:58:59;;;;;;;6.72;5.57;;;21.00;74.20;;;;;;4997818;28;20025;-61
2023/04/21 10:01:28;;;;;;;5.10;4.60;;;21.40;70.70;;;;;;4998012;28;20247;-62
2023/04/21 10:03:54;;;;;;;5.35;4.75;;;21.50;71.30;;;;;;4997949;28;20525;-62
2023/04/21 10:06:20;;;;;;;6.03;5.00;;;21.10;68.80;;;;;;5000562;28;20058;-64
2023/04/21 10:08:46;;;;;;;4.30;3.90;;;21.10;71.90;;;;;;4999017;28;20046;-61
2023/04/21 10:11:12;;;;;;;4.07;3.67;;;21.40;72.80;;;;;;4995503;28;20037;-63
2023/04/21 10:13:38;;;;;;;3.95;3.58;;;21.70;69.70;;;;;;4997311;28;20030;-60
2023/04/21 10:16:06;;;;;;;8.23;2.80;;;22.50;67.90;;;;;;4999171;28;20036;-63
2023/04/21 10:18:41;;;;;;;4.28;3.80;;;22.60;65.80;;;;;;4998362;28;20023;-62
2023/04/21 10:21:09;;;;;;;3.97;3.50;;;22.50;68.70;;;;;;4998919;28;20031;-62
2023/04/21 10:23:45;;;;;;;4.53;4.10;;;22.20;68.50;;;;;;5000143;28;20026;-61
2023/04/21 10:26:21;;;;;;;5.18;3.38;;;21.90;70.10;;;;;;4996380;28;20056;-63
2023/04/21 10:29:00;;;;;;;4.82;4.05;;;21.80;69.60;;;;;;4999074;28;20521;-64
2023/04/21 10:31:34;;;;;;;4.60;3.90;;;21.70;67.40;;;;;;4999935;28;20699;-61
2023/04/21 10:34:09;;;;;;;6.68;4.05;;;21.50;71.60;;;;;;4997998;28;20034;-60
2023/04/21 10:36:44;;;;;;;5.78;4.38;;;21.30;70.90;;;;;;4996569;28;20457;-61
2023/04/21 10:39:12;;;;;;;4.75;3.75;;;21.10;70.60;;;;;;4993782;28;20027;-61
2023/04/21 10:41:37;;;;;;;4.43;3.85;;;21.10;70.40;;;;;;4997415;28;20034;-61
2023/04/21 10:44:10;;;;;;;6.70;3.78;;;20.90;69.40;;;;;;4998749;28;20463;-63
2023/04/21 10:46:44;;;;;;;5.05;4.03;;;20.90;72.90;;;;;;4998913;28;20026;-63
2023/04/21 10:49:11;;;;;;;3.55;3.25;;;20.90;74.20;;;;;;4997263;28;20023;-63
2023/04/21 10:54:30;;;;;;;4.40;3.78;;;20.80;70.40;;;;;;4998327;28;20400;-65
2023/04/21 10:56:57;;;;;;;4.65;3.97;;;20.90;67.40;;;;;;4996374;28;20517;-64
2023/04/21 10:59:25;;;;;;;6.80;2.95;;;20.80;68.30;;;;;;4998164;28;20038;-60
2023/04/21 11:01:51;;;;;;;3.67;3.38;;;20.90;68.60;;;;;;4996508;28;20031;-62
2023/04/21 11:04:18;;;;;;;3.80;3.33;;;20.90;64.90;;;;;;4999075;28;20032;-60
2023/04/21 11:07:06;;;;;;;6.28;3.00;;;20.70;68.00;;;;;;4995505;28;20088;-61
2023/04/21 11:09:31;;;;;;;2.95;2.70;;;20.80;70.00;;;;;;4998041;28;20029;-60
2023/04/21 11:11:58;;;;;;;7.07;2.97;;;20.80;70.00;;;;;;5000939;28;20453;-62
2023/04/21 11:14:24;;;;;;;2.67;2.10;;;21.00;67.30;;;;;;4998235;28;20487;-60
2023/04/21 11:16:50;;;;;;;2.28;2.08;;;21.00;68.50;;;;;;4993009;28;20030;-61
2023/04/21 11:19:16;;;;;;;4.28;2.83;;;21.30;65.70;;;;;;4996743;28;20144;-61
2023/04/21 11:21:42;;;;;;;32.72;3.53;;;21.40;64.90;;;;;;4997020;28;20041;-63
2023/04/21 11:24:08;;;;;;;2.70;2.50;;;21.30;67.90;;;;;;4996160;28;20226;-61
2023/04/21 11:26:37;;;;;;;2.45;2.25;;;21.30;63.60;;;;;;4997504;28;20030;-60
2023/04/21 11:29:08;;;;;;;2.42;2.20;;;21.10;70.60;;;;;;4995888;28;20034;-61
2023/04/21 11:31:35;;;;;;;3.10;2.45;;;21.00;67.30;;;;;;4994623;28;20116;-60
2023/04/21 11:34:04;;;;;;;3.60;2.17;;;20.90;67.70;;;;;;4993476;28;20583;-60
2023/04/21 11:36:35;;;;;;;6.63;2.15;;;21.00;68.00;;;;;;4994305;28;20121;-60
2023/04/21 11:39:15;;;;;;;2.95;2.30;;;21.00;67.50;;;;;;4997464;28;20041;-62
2023/04/21 11:41:45;;;;;;;2.92;2.38;;;20.90;64.70;;;;;;4997343;28;20034;-62
2023/04/21 11:44:12;;;;;;;6.85;2.97;;;20.70;61.10;;;;;;4996574;28;20112;-61
2023/04/21 11:46:45;;;;;;;29.15;3.67;;;20.50;68.50;;;;;;4998623;28;20038;-61
2023/04/21 11:49:12;;;;;;;4.65;2.92;;;20.50;71.90;;;;;;4999147;28;20605;-61
2023/04/21 11:51:39;;;;;;;4.40;2.83;;;20.60;71.30;;;;;;4995911;28;20069;-58
2023/04/21 11:54:07;;;;;;;5.03;2.20;;;20.70;70.30;;;;;;4995915;28;20108;-61
2023/04/21 11:56:51;;;;;;;2.10;1.88;;;20.90;64.60;;;;;;4998738;28;20057;-63
2023/04/21 11:59:22;;;;;;;6.95;2.78;;;21.20;62.60;;;;;;4997228;28;20398;-60
2023/04/21 12:01:50;;;;;;;4.43;2.80;;;21.30;66.00;;;;;;4998381;28;20831;-65
2023/04/21 12:04:17;;;;;;;18.63;3.17;;;21.30;68.80;;;;;;4996462;28;20025;-62
2023/04/21 12:06:45;;;;;;;2.58;2.38;;;21.30;66.20;;;;;;4998027;28;20558;-62
2023/04/21 12:09:17;;;;;;;3.25;2.20;;;21.40;66.70;;;;;;4993438;28;20029;-63
2023/04/21 12:12:00;;;;;;;3.53;2.42;;;21.40;64.60;;;;;;4996116;28;20038;-61
2023/04/21 12:14:26;;;;;;;2.72;2.53;;;21.40;65.10;;;;;;4994719;28;20027;-61
2023/04/21 12:16:56;;;;;;;2.80;2.00;;;21.40;63.50;;;;;;4995921;28;20033;-60
2023/04/21 12:19:35;;;;;;;3.03;2.30;;;21.00;63.40;;;;;;4995196;28;20023;-62
2023/04/21 12:22:01;;;;;;;3.75;2.13;;;20.90;63.50;;;;;;4997058;28;20046;-63
2023/04/21 12:24:27;;;;;;;3.03;2.13;;;21.10;63.90;;;;;;4998818;28;20037;-61
2023/04/21 12:26:53;;;;;;;5.80;1.98;;;21.50;65.10;;;;;;4997394;28;20029;-62
2023/04/21 12:29:18;;;;;;;4.50;3.15;;;21.80;61.20;;;;;;4996590;28;20026;-60
2023/04/21 12:31:44;;;;;;;3.85;2.92;;;21.70;67.00;;;;;;4998280;28;20488;-61
2023/04/21 12:34:10;;;;;;;2.30;2.05;;;21.60;63.80;;;;;;4998276;28;20498;-62
2023/04/21 12:36:35;;;;;;;2.65;2.22;;;21.90;63.00;;;;;;4999738;28;20041;-62
2023/04/21 12:39:01;;;;;;;2.55;2.35;;;21.70;62.50;;;;;;4999699;28;20546;-60